sensor_id;sensor_type;location;lat;lon;timestamp;P1;durP1;ratioP1;P2;durP2;ratioP2
11955;SDS011;6038;52.276;10.530;2023-07-28T00:00:10;12.57;;;9.20;;
11955;SDS011;6038;52.276;10.530;2023-07-28T00:02:36;17.00;;;9.23;;
11955;SDS011;6038;52.276;10.530;2023-07-28T00:05:02;15.00;;;9.60;;
11955;SDS011;6038;52.276;10.530;2023-07-28T00:07:28;13.13;;;8.90;;
11955;SDS011;6038;52.276;10.530;2023-07-28T00:09:54;18.10;;;8.87;;
11955;SDS011;6038;52.276;10.530;2023-07-28T00:12:20;13.83;;;8.80;;
11955;SDS011;6038;52.276;10.530;2023-07-28T00:14:47;13.63;;;8.47;;
11955;SDS011;6038;52.276;10.530;2023-07-28T00:17:13;11.97;;;8.73;;
11955;SDS011;6038;52.276;10.530;2023-07-28T00:19:39;8.83;;;7.93;;
11955;SDS011;6038;52.276;10.530;2023-07-28T00:22:05;10.97;;;8.20;;
11955;SDS011;6038;52.276;10.530;2023-07-28T00:24:31;9.80;;;7.73;;
11955;SDS011;6038;52.276;10.530;2023-07-28T00:26:57;11.93;;;7.47;;
11955;SDS011;6038;52.276;10.530;2023-07-28T00:29:22;8.03;;;7.13;;
11955;SDS011;6038;52.276;10.530;2023-07-28T00:31:48;10.90;;;7.20;;
11955;SDS011;6038;52.276;10.530;2023-07-28T00:34:14;10.13;;;6.97;;
11955;SDS011;6038;52.276;10.530;2023-07-28T00:36:40;9.60;;;7.23;;
11955;SDS011;6038;52.276;10.530;2023-07-28T00:39:06;10.87;;;6.80;;
11955;SDS011;6038;52.276;10.530;2023-07-28T00:41:32;8.60;;;7.10;;
11955;SDS011;6038;52.276;10.530;2023-07-28T00:43:58;10.33;;;6.90;;
11955;SDS011;6038;52.276;10.530;2023-07-28T00:46:24;10.27;;;6.93;;
11955;SDS011;6038;52.276;10.530;2023-07-28T00:48:50;11.73;;;7.60;;
11955;SDS011;6038;52.276;10.530;2023-07-28T00:51:17;12.40;;;6.80;;
11955;SDS011;6038;52.276;10.530;2023-07-28T00:53:43;8.00;;;7.00;;
11955;SDS011;6038;52.276;10.530;2023-07-28T00:56:10;9.57;;;7.00;;
11955;SDS011;6038;52.276;10.530;2023-07-28T00:58:36;8.70;;;6.93;;
11955;SDS011;6038;52.276;10.530;2023-07-28T01:01:02;8.17;;;7.10;;
11955;SDS011;6038;52.276;10.530;2023-07-28T01:03:28;9.63;;;7.00;;
11955;SDS011;6038;52.276;10.530;2023-07-28T01:06:10;8.53;;;7.00;;
11955;SDS011;6038;52.276;10.530;2023-07-28T01:11:12;10.67;;;7.43;;
11955;SDS011;6038;52.276;10.530;2023-07-28T01:13:38;10.53;;;6.53;;
11955;SDS011;6038;52.276;10.530;2023-07-28T01:16:05;9.23;;;6.83;;
11955;SDS011;6038;52.276;10.530;2023-07-28T01:18:31;9.17;;;7.13;;
11955;SDS011;6038;52.276;10.530;2023-07-28T01:20:57;10.03;;;7.33;;
11955;SDS011;6038;52.276;10.530;2023-07-28T01:23:39;9.73;;;7.47;;
11955;SDS011;6038;52.276;10.530;2023-07-28T01:26:10;10.50;;;7.30;;
11955;SDS011;6038;52.276;10.530;2023-07-28T01:28:37;10.13;;;7.07;;
11955;SDS011;6038;52.276;10.530;2023-07-28T01:31:04;9.47;;;7.37;;
11955;SDS011;6038;52.276;10.530;2023-07-28T01:33:30;8.00;;;6.97;;
11955;SDS011;6038;52.276;10.530;2023-07-28T01:35:56;7.17;;;6.43;;
11955;SDS011;6038;52.276;10.530;2023-07-28T01:38:23;11.33;;;7.20;;
11955;SDS011;6038;52.276;10.530;2023-07-28T01:40:49;9.38;;;7.25;;
11955;SDS011;6038;52.276;10.530;2023-07-28T01:43:15;8.47;;;6.93;;
11955;SDS011;6038;52.276;10.530;2023-07-28T01:45:41;8.40;;;6.53;;
11955;SDS011;6038;52.276;10.530;2023-07-28T01:48:07;9.60;;;7.00;;
11955;SDS011;6038;52.276;10.530;2023-07-28T01:50:34;9.60;;;6.70;;
11955;SDS011;6038;52.276;10.530;2023-07-28T01:53:00;8.03;;;6.57;;
11955;SDS011;6038;52.276;10.530;2023-07-28T01:55:26;8.60;;;6.87;;
11955;SDS011;6038;52.276;10.530;2023-07-28T01:57:56;8.27;;;6.17;;
11955;SDS011;6038;52.276;10.530;2023-07-28T02:00:22;7.97;;;7.03;;
11955;SDS011;6038;52.276;10.530;2023-07-28T02:02:49;8.63;;;6.23;;
11955;SDS011;6038;52.276;10.530;2023-07-28T02:05:15;9.03;;;6.30;;
11955;SDS011;6038;52.276;10.530;2023-07-28T02:07:41;7.17;;;6.43;;
11955;SDS011;6038;52.276;10.530;2023-07-28T02:10:08;9.17;;;6.67;;
11955;SDS011;6038;52.276;10.530;2023-07-28T02:12:35;7.33;;;6.13;;
11955;SDS011;6038;52.276;10.530;2023-07-28T02:15:01;7.33;;;5.93;;
11955;SDS011;6038;52.276;10.530;2023-07-28T02:17:27;7.03;;;5.73;;
11955;SDS011;6038;52.276;10.530;2023-07-28T02:19:53;7.00;;;5.67;;
11955;SDS011;6038;52.276;10.530;2023-07-28T02:22:19;6.40;;;5.77;;
11955;SDS011;6038;52.276;10.530;2023-07-28T02:24:45;6.50;;;5.30;;
11955;SDS011;6038;52.276;10.530;2023-07-28T02:27:11;7.23;;;4.80;;
11955;SDS011;6038;52.276;10.530;2023-07-28T02:29:37;5.83;;;4.70;;
11955;SDS011;6038;52.276;10.530;2023-07-28T02:32:03;6.70;;;4.73;;
11955;SDS011;6038;52.276;10.530;2023-07-28T02:34:29;5.93;;;4.63;;
11955;SDS011;6038;52.276;10.530;2023-07-28T02:36:55;5.50;;;4.80;;
11955;SDS011;6038;52.276;10.530;2023-07-28T02:39:21;7.93;;;4.77;;
11955;SDS011;6038;52.276;10.530;2023-07-28T02:41:47;5.13;;;4.40;;
11955;SDS011;6038;52.276;10.530;2023-07-28T02:44:13;5.17;;;4.30;;
11955;SDS011;6038;52.276;10.530;2023-07-28T02:46:39;5.30;;;4.10;;
11955;SDS011;6038;52.276;10.530;2023-07-28T02:49:05;4.47;;;3.83;;
11955;SDS011;6038;52.276;10.530;2023-07-28T02:51:31;7.73;;;3.67;;
11955;SDS011;6038;52.276;10.530;2023-07-28T02:53:59;4.20;;;3.80;;
11955;SDS011;6038;52.276;10.530;2023-07-28T02:56:25;5.20;;;3.77;;
11955;SDS011;6038;52.276;10.530;2023-07-28T02:58:51;3.80;;;3.40;;
11955;SDS011;6038;52.276;10.530;2023-07-28T03:01:17;3.97;;;3.40;;
11955;SDS011;6038;52.276;10.530;2023-07-28T03:03:43;5.83;;;3.50;;
11955;SDS011;6038;52.276;10.530;2023-07-28T03:06:09;5.27;;;3.27;;
11955;SDS011;6038;52.276;10.530;2023-07-28T03:08:35;3.17;;;2.87;;
11955;SDS011;6038;52.276;10.530;2023-07-28T03:11:01;3.13;;;2.83;;
11955;SDS011;6038;52.276;10.530;2023-07-28T03:13:28;3.63;;;3.00;;
11955;SDS011;6038;52.276;10.530;2023-07-28T03:15:54;4.67;;;2.80;;
11955;SDS011;6038;52.276;10.530;2023-07-28T03:18:20;5.60;;;3.00;;
11955;SDS011;6038;52.276;10.530;2023-07-28T03:20:46;3.83;;;3.10;;
11955;SDS011;6038;52.276;10.530;2023-07-28T03:23:12;3.33;;;2.80;;
11955;SDS011;6038;52.276;10.530;2023-07-28T03:25:39;2.90;;;2.70;;
11955;SDS011;6038;52.276;10.530;2023-07-28T03:28:05;4.27;;;3.10;;
11955;SDS011;6038;52.276;10.530;2023-07-28T03:30:31;4.10;;;2.40;;
11955;SDS011;6038;52.276;10.530;2023-07-28T03:32:57;4.47;;;3.00;;
11955;SDS011;6038;52.276;10.530;2023-07-28T03:35:23;4.37;;;2.77;;
11955;SDS011;6038;52.276;10.530;2023-07-28T03:37:49;4.00;;;2.80;;
11955;SDS011;6038;52.276;10.530;2023-07-28T03:40:14;5.83;;;2.67;;
11955;SDS011;6038;52.276;10.530;2023-07-28T03:42:40;5.00;;;2.50;;
11955;SDS011;6038;52.276;10.530;2023-07-28T03:45:07;6.67;;;2.53;;
11955;SDS011;6038;52.276;10.530;2023-07-28T03:47:33;4.43;;;2.40;;
11955;SDS011;6038;52.276;10.530;2023-07-28T03:49:59;4.43;;;2.50;;
11955;SDS011;6038;52.276;10.530;2023-07-28T03:52:25;3.30;;;2.33;;
11955;SDS011;6038;52.276;10.530;2023-07-28T03:54:51;3.57;;;2.17;;
11955;SDS011;6038;52.276;10.530;2023-07-28T03:57:17;4.10;;;2.10;;
11955;SDS011;6038;52.276;10.530;2023-07-28T03:59:43;3.47;;;2.40;;
11955;SDS011;6038;52.276;10.530;2023-07-28T04:02:09;2.33;;;1.90;;
11955;SDS011;6038;52.276;10.530;2023-07-28T04:04:35;2.47;;;1.87;;
11955;SDS011;6038;52.276;10.530;2023-07-28T04:07:01;3.50;;;2.13;;
11955;SDS011;6038;52.276;10.530;2023-07-28T04:09:27;4.23;;;2.13;;
11955;SDS011;6038;52.276;10.530;2023-07-28T04:11:53;3.50;;;2.00;;
11955;SDS011;6038;52.276;10.530;2023-07-28T04:14:19;5.03;;;1.90;;
11955;SDS011;6038;52.276;10.530;2023-07-28T04:16:45;3.47;;;2.00;;
11955;SDS011;6038;52.276;10.530;2023-07-28T04:19:11;5.73;;;2.20;;
11955;SDS011;6038;52.276;10.530;2023-07-28T04:21:37;4.60;;;1.77;;
11955;SDS011;6038;52.276;10.530;2023-07-28T04:24:05;2.60;;;1.90;;
11955;SDS011;6038;52.276;10.530;2023-07-28T04:26:32;3.80;;;2.00;;
11955;SDS011;6038;52.276;10.530;2023-07-28T04:28:58;1.93;;;1.67;;
11955;SDS011;6038;52.276;10.530;2023-07-28T04:31:24;2.27;;;2.00;;
11955;SDS011;6038;52.276;10.530;2023-07-28T04:33:50;3.73;;;1.97;;
11955;SDS011;6038;52.276;10.530;2023-07-28T04:36:16;5.10;;;1.90;;
11955;SDS011;6038;52.276;10.530;2023-07-28T04:38:42;2.23;;;1.90;;
11955;SDS011;6038;52.276;10.530;2023-07-28T04:41:08;2.47;;;2.17;;
11955;SDS011;6038;52.276;10.530;2023-07-28T04:43:34;4.30;;;2.27;;
11955;SDS011;6038;52.276;10.530;2023-07-28T04:46:00;3.78;;;2.60;;
11955;SDS011;6038;52.276;10.530;2023-07-28T04:48:26;5.77;;;3.07;;
11955;SDS011;6038;52.276;10.530;2023-07-28T04:50:52;4.67;;;2.67;;
11955;SDS011;6038;52.276;10.530;2023-07-28T04:53:19;3.83;;;2.23;;
11955;SDS011;6038;52.276;10.530;2023-07-28T04:55:45;2.53;;;2.33;;
11955;SDS011;6038;52.276;10.530;2023-07-28T04:58:11;2.43;;;2.17;;
11955;SDS011;6038;52.276;10.530;2023-07-28T05:00:37;2.55;;;2.10;;
11955;SDS011;6038;52.276;10.530;2023-07-28T05:03:03;3.07;;;2.77;;
11955;SDS011;6038;52.276;10.530;2023-07-28T05:05:29;5.37;;;2.80;;
11955;SDS011;6038;52.276;10.530;2023-07-28T05:07:55;2.97;;;2.67;;
11955;SDS011;6038;52.276;10.530;2023-07-28T05:10:21;3.10;;;2.20;;
11955;SDS011;6038;52.276;10.530;2023-07-28T05:12:47;4.00;;;3.00;;
11955;SDS011;6038;52.276;10.530;2023-07-28T05:15:14;2.67;;;2.47;;
11955;SDS011;6038;52.276;10.530;2023-07-28T05:17:40;3.83;;;2.40;;
11955;SDS011;6038;52.276;10.530;2023-07-28T05:20:06;3.00;;;2.70;;
11955;SDS011;6038;52.276;10.530;2023-07-28T05:22:32;3.00;;;2.43;;
11955;SDS011;6038;52.276;10.530;2023-07-28T05:24:58;4.90;;;2.37;;
11955;SDS011;6038;52.276;10.530;2023-07-28T05:27:24;3.35;;;2.80;;
11955;SDS011;6038;52.276;10.530;2023-07-28T05:29:50;5.72;;;3.00;;
11955;SDS011;6038;52.276;10.530;2023-07-28T05:32:16;4.28;;;2.63;;
11955;SDS011;6038;52.276;10.530;2023-07-28T05:34:42;4.97;;;2.72;;
11955;SDS011;6038;52.276;10.530;2023-07-28T05:37:09;2.75;;;2.55;;
11955;SDS011;6038;52.276;10.530;2023-07-28T05:39:35;3.58;;;2.60;;
11955;SDS011;6038;52.276;10.530;2023-07-28T05:42:01;3.10;;;2.80;;
11955;SDS011;6038;52.276;10.530;2023-07-28T05:44:27;5.50;;;2.40;;
11955;SDS011;6038;52.276;10.530;2023-07-28T05:46:53;2.87;;;2.40;;
11955;SDS011;6038;52.276;10.530;2023-07-28T05:49:19;2.60;;;2.40;;
11955;SDS011;6038;52.276;10.530;2023-07-28T05:51:45;3.00;;;2.28;;
11955;SDS011;6038;52.276;10.530;2023-07-28T05:54:12;2.50;;;2.30;;
11955;SDS011;6038;52.276;10.530;2023-07-28T05:56:40;4.43;;;2.13;;
11955;SDS011;6038;52.276;10.530;2023-07-28T05:59:06;2.50;;;2.30;;
11955;SDS011;6038;52.276;10.530;2023-07-28T06:01:32;3.13;;;2.20;;
11955;SDS011;6038;52.276;10.530;2023-07-28T06:03:58;2.60;;;2.40;;
11955;SDS011;6038;52.276;10.530;2023-07-28T06:06:24;3.33;;;2.00;;
11955;SDS011;6038;52.276;10.530;2023-07-28T06:08:51;2.30;;;2.10;;
11955;SDS011;6038;52.276;10.530;2023-07-28T06:11:17;2.15;;;1.90;;
11955;SDS011;6038;52.276;10.530;2023-07-28T06:13:43;2.65;;;2.40;;
11955;SDS011;6038;52.276;10.530;2023-07-28T06:16:11;2.20;;;2.00;;
11955;SDS011;6038;52.276;10.530;2023-07-28T06:18:37;2.22;;;2.03;;
11955;SDS011;6038;52.276;10.530;2023-07-28T06:21:03;2.28;;;2.08;;
11955;SDS011;6038;52.276;10.530;2023-07-28T06:23:29;4.10;;;2.25;;
11955;SDS011;6038;52.276;10.530;2023-07-28T06:25:55;4.30;;;2.60;;
11955;SDS011;6038;52.276;10.530;2023-07-28T06:28:21;3.63;;;2.50;;
11955;SDS011;6038;52.276;10.530;2023-07-28T06:30:47;3.65;;;2.50;;
11955;SDS011;6038;52.276;10.530;2023-07-28T06:33:13;5.85;;;2.65;;
11955;SDS011;6038;52.276;10.530;2023-07-28T06:35:39;3.97;;;3.03;;
11955;SDS011;6038;52.276;10.530;2023-07-28T06:38:05;3.03;;;2.80;;
11955;SDS011;6038;52.276;10.530;2023-07-28T06:40:31;3.40;;;3.10;;
11955;SDS011;6038;52.276;10.530;2023-07-28T06:42:57;4.53;;;2.83;;
11955;SDS011;6038;52.276;10.530;2023-07-28T06:45:23;3.13;;;2.78;;
11955;SDS011;6038;52.276;10.530;2023-07-28T06:47:49;3.65;;;3.20;;
11955;SDS011;6038;52.276;10.530;2023-07-28T06:50:16;3.63;;;2.60;;
11955;SDS011;6038;52.276;10.530;2023-07-28T06:52:42;4.55;;;3.20;;
11955;SDS011;6038;52.276;10.530;2023-07-28T06:55:08;3.45;;;2.70;;
11955;SDS011;6038;52.276;10.530;2023-07-28T06:57:34;3.78;;;3.05;;
11955;SDS011;6038;52.276;10.530;2023-07-28T07:00:00;5.03;;;3.38;;
11955;SDS011;6038;52.276;10.530;2023-07-28T07:02:26;4.10;;;3.70;;
11955;SDS011;6038;52.276;10.530;2023-07-28T07:04:52;3.30;;;2.95;;
11955;SDS011;6038;52.276;10.530;2023-07-28T07:07:18;3.30;;;3.00;;
11955;SDS011;6038;52.276;10.530;2023-07-28T07:09:44;3.88;;;3.47;;
11955;SDS011;6038;52.276;10.530;2023-07-28T07:12:10;3.33;;;3.03;;
11955;SDS011;6038;52.276;10.530;2023-07-28T07:14:36;3.63;;;3.30;;
11955;SDS011;6038;52.276;10.530;2023-07-28T07:17:02;3.15;;;2.85;;
11955;SDS011;6038;52.276;10.530;2023-07-28T07:19:28;3.05;;;2.85;;
11955;SDS011;6038;52.276;10.530;2023-07-28T07:21:55;4.10;;;3.20;;
11955;SDS011;6038;52.276;10.530;2023-07-28T07:24:21;5.65;;;3.00;;
11955;SDS011;6038;52.276;10.530;2023-07-28T07:26:47;3.58;;;3.15;;
11955;SDS011;6038;52.276;10.530;2023-07-28T07:29:13;3.20;;;2.88;;
11955;SDS011;6038;52.276;10.530;2023-07-28T07:31:39;3.10;;;2.78;;
11955;SDS011;6038;52.276;10.530;2023-07-28T07:34:05;4.00;;;3.22;;
11955;SDS011;6038;52.276;10.530;2023-07-28T07:36:31;3.83;;;3.00;;
11955;SDS011;6038;52.276;10.530;2023-07-28T07:38:58;3.60;;;3.30;;
11955;SDS011;6038;52.276;10.530;2023-07-28T07:41:24;4.45;;;3.40;;
11955;SDS011;6038;52.276;10.530;2023-07-28T07:43:52;3.60;;;3.20;;
11955;SDS011;6038;52.276;10.530;2023-07-28T07:46:18;4.97;;;3.42;;
11955;SDS011;6038;52.276;10.530;2023-07-28T07:48:45;4.07;;;3.67;;
11955;SDS011;6038;52.276;10.530;2023-07-28T07:51:11;4.30;;;3.80;;
11955;SDS011;6038;52.276;10.530;2023-07-28T07:53:37;5.35;;;4.50;;
11955;SDS011;6038;52.276;10.530;2023-07-28T07:56:03;5.45;;;4.30;;
11955;SDS011;6038;52.276;10.530;2023-07-28T07:58:30;6.07;;;4.20;;
11955;SDS011;6038;52.276;10.530;2023-07-28T08:00:56;4.78;;;4.35;;
11955;SDS011;6038;52.276;10.530;2023-07-28T08:03:22;6.78;;;4.45;;
11955;SDS011;6038;52.276;10.530;2023-07-28T08:05:49;4.90;;;4.38;;
11955;SDS011;6038;52.276;10.530;2023-07-28T08:08:15;5.97;;;4.90;;
11955;SDS011;6038;52.276;10.530;2023-07-28T08:10:42;5.97;;;4.43;;
11955;SDS011;6038;52.276;10.530;2023-07-28T08:13:08;6.25;;;4.82;;
11955;SDS011;6038;52.276;10.530;2023-07-28T08:15:34;5.38;;;4.57;;
11955;SDS011;6038;52.276;10.530;2023-07-28T08:18:00;5.60;;;4.80;;
11955;SDS011;6038;52.276;10.530;2023-07-28T08:20:26;6.32;;;5.10;;
11955;SDS011;6038;52.276;10.530;2023-07-28T08:22:53;5.30;;;4.80;;
11955;SDS011;6038;52.276;10.530;2023-07-28T08:25:19;5.82;;;4.60;;
11955;SDS011;6038;52.276;10.530;2023-07-28T08:27:45;5.57;;;4.72;;
11955;SDS011;6038;52.276;10.530;2023-07-28T08:30:11;8.02;;;4.95;;
11955;SDS011;6038;52.276;10.530;2023-07-28T08:32:37;6.05;;;4.90;;
11955;SDS011;6038;52.276;10.530;2023-07-28T08:35:03;5.97;;;4.82;;
11955;SDS011;6038;52.276;10.530;2023-07-28T08:37:29;5.20;;;4.38;;
11955;SDS011;6038;52.276;10.530;2023-07-28T08:39:55;4.90;;;4.38;;
11955;SDS011;6038;52.276;10.530;2023-07-28T08:42:21;5.45;;;4.57;;
11955;SDS011;6038;52.276;10.530;2023-07-28T08:44:50;5.10;;;4.60;;
11955;SDS011;6038;52.276;10.530;2023-07-28T08:47:19;5.68;;;4.93;;
11955;SDS011;6038;52.276;10.530;2023-07-28T08:49:46;5.45;;;4.22;;
11955;SDS011;6038;52.276;10.530;2023-07-28T08:52:14;5.25;;;4.07;;
11955;SDS011;6038;52.276;10.530;2023-07-28T08:54:42;5.80;;;3.88;;
11955;SDS011;6038;52.276;10.530;2023-07-28T08:57:08;4.90;;;4.28;;
11955;SDS011;6038;52.276;10.530;2023-07-28T08:59:35;5.35;;;4.05;;
11955;SDS011;6038;52.276;10.530;2023-07-28T09:02:01;4.40;;;4.00;;
11955;SDS011;6038;52.276;10.530;2023-07-28T09:04:29;4.07;;;3.67;;
11955;SDS011;6038;52.276;10.530;2023-07-28T09:06:55;4.93;;;4.00;;
11955;SDS011;6038;52.276;10.530;2023-07-28T09:09:22;6.45;;;4.15;;
11955;SDS011;6038;52.276;10.530;2023-07-28T09:11:49;5.43;;;3.83;;
11955;SDS011;6038;52.276;10.530;2023-07-28T09:14:16;5.05;;;4.00;;
11955;SDS011;6038;52.276;10.530;2023-07-28T09:16:43;3.95;;;3.63;;
11955;SDS011;6038;52.276;10.530;2023-07-28T09:19:09;4.65;;;4.25;;
11955;SDS011;6038;52.276;10.530;2023-07-28T09:21:36;4.15;;;3.85;;
11955;SDS011;6038;52.276;10.530;2023-07-28T09:24:06;6.18;;;3.60;;
11955;SDS011;6038;52.276;10.530;2023-07-28T09:26:45;4.30;;;4.00;;
11955;SDS011;6038;52.276;10.530;2023-07-28T09:31:37;5.65;;;3.83;;
11955;SDS011;6038;52.276;10.530;2023-07-28T09:34:06;4.32;;;3.83;;
11955;SDS011;6038;52.276;10.530;2023-07-28T09:36:33;4.90;;;3.58;;
11955;SDS011;6038;52.276;10.530;2023-07-28T09:38:59;5.03;;;3.47;;
11955;SDS011;6038;52.276;10.530;2023-07-28T09:41:27;4.10;;;3.70;;
11955;SDS011;6038;52.276;10.530;2023-07-28T09:43:54;5.03;;;3.50;;
11955;SDS011;6038;52.276;10.530;2023-07-28T09:46:22;3.88;;;3.22;;
11955;SDS011;6038;52.276;10.530;2023-07-28T09:48:48;5.55;;;3.40;;
11955;SDS011;6038;52.276;10.530;2023-07-28T09:51:17;4.15;;;3.30;;
11955;SDS011;6038;52.276;10.530;2023-07-28T09:53:46;4.32;;;3.38;;
11955;SDS011;6038;52.276;10.530;2023-07-28T09:56:16;5.30;;;2.90;;
11955;SDS011;6038;52.276;10.530;2023-07-28T09:58:47;4.53;;;2.70;;
11955;SDS011;6038;52.276;10.530;2023-07-28T10:01:15;3.22;;;2.92;;
11955;SDS011;6038;52.276;10.530;2023-07-28T10:03:41;3.17;;;2.72;;
11955;SDS011;6038;52.276;10.530;2023-07-28T10:06:07;3.13;;;2.83;;
11955;SDS011;6038;52.276;10.530;2023-07-28T10:08:33;2.70;;;2.50;;
11955;SDS011;6038;52.276;10.530;2023-07-28T10:10:59;2.40;;;2.20;;
11955;SDS011;6038;52.276;10.530;2023-07-28T10:13:27;2.95;;;2.42;;
11955;SDS011;6038;52.276;10.530;2023-07-28T10:15:53;2.88;;;2.05;;
11955;SDS011;6038;52.276;10.530;2023-07-28T10:18:19;3.10;;;2.40;;
11955;SDS011;6038;52.276;10.530;2023-07-28T10:20:47;2.55;;;2.35;;
11955;SDS011;6038;52.276;10.530;2023-07-28T10:25:40;3.50;;;2.28;;
11955;SDS011;6038;52.276;10.530;2023-07-28T10:28:08;2.97;;;2.35;;
11955;SDS011;6038;52.276;10.530;2023-07-28T10:30:51;2.00;;;1.90;;
11955;SDS011;6038;52.276;10.530;2023-07-28T10:35:53;3.33;;;1.70;;
11955;SDS011;6038;52.276;10.530;2023-07-28T10:38:29;1.98;;;1.88;;
11955;SDS011;6038;52.276;10.530;2023-07-28T10:41:05;3.47;;;1.98;;
11955;SDS011;6038;52.276;10.530;2023-07-28T10:43:32;2.25;;;1.77;;
11955;SDS011;6038;52.276;10.530;2023-07-28T10:45:59;2.13;;;1.98;;
11955;SDS011;6038;52.276;10.530;2023-07-28T10:48:25;1.80;;;1.70;;
11955;SDS011;6038;52.276;10.530;2023-07-28T10:50:51;2.88;;;2.08;;
11955;SDS011;6038;52.276;10.530;2023-07-28T10:53:17;1.90;;;1.77;;
11955;SDS011;6038;52.276;10.530;2023-07-28T10:55:43;1.80;;;1.70;;
11955;SDS011;6038;52.276;10.530;2023-07-28T10:58:09;4.68;;;1.75;;
11955;SDS011;6038;52.276;10.530;2023-07-28T11:00:35;2.95;;;1.70;;
11955;SDS011;6038;52.276;10.530;2023-07-28T11:03:02;2.28;;;1.80;;
11955;SDS011;6038;52.276;10.530;2023-07-28T11:05:28;1.90;;;1.80;;
11955;SDS011;6038;52.276;10.530;2023-07-28T11:07:55;2.00;;;1.90;;
11955;SDS011;6038;52.276;10.530;2023-07-28T11:10:22;2.10;;;1.90;;
11955;SDS011;6038;52.276;10.530;2023-07-28T11:12:49;2.50;;;1.80;;
11955;SDS011;6038;52.276;10.530;2023-07-28T11:15:16;3.10;;;2.00;;
11955;SDS011;6038;52.276;10.530;2023-07-28T11:17:46;2.78;;;2.00;;
11955;SDS011;6038;52.276;10.530;2023-07-28T11:20:16;1.88;;;1.77;;
11955;SDS011;6038;52.276;10.530;2023-07-28T11:22:45;2.22;;;2.03;;
11955;SDS011;6038;52.276;10.530;2023-07-28T11:25:12;1.90;;;1.80;;
11955;SDS011;6038;52.276;10.530;2023-07-28T11:27:38;2.10;;;1.80;;
11955;SDS011;6038;52.276;10.530;2023-07-28T11:30:06;3.35;;;1.80;;
11955;SDS011;6038;52.276;10.530;2023-07-28T11:32:34;2.28;;;2.08;;
11955;SDS011;6038;52.276;10.530;2023-07-28T11:35:04;1.70;;;1.60;;
11955;SDS011;6038;52.276;10.530;2023-07-28T11:37:31;2.97;;;1.90;;
11955;SDS011;6038;52.276;10.530;2023-07-28T11:39:58;1.95;;;1.80;;
11955;SDS011;6038;52.276;10.530;2023-07-28T11:42:25;1.60;;;1.50;;
11955;SDS011;6038;52.276;10.530;2023-07-28T11:44:52;3.88;;;1.80;;
11955;SDS011;6038;52.276;10.530;2023-07-28T11:47:18;2.17;;;1.98;;
11955;SDS011;6038;52.276;10.530;2023-07-28T11:49:47;3.45;;;1.80;;
11955;SDS011;6038;52.276;10.530;2023-07-28T11:52:14;2.17;;;1.70;;
11955;SDS011;6038;52.276;10.530;2023-07-28T11:54:40;2.13;;;2.00;;
11955;SDS011;6038;52.276;10.530;2023-07-28T11:57:07;2.10;;;1.90;;
11955;SDS011;6038;52.276;10.530;2023-07-28T11:59:34;1.80;;;1.70;;
11955;SDS011;6038;52.276;10.530;2023-07-28T12:02:01;1.83;;;1.70;;
11955;SDS011;6038;52.276;10.530;2023-07-28T12:04:31;1.70;;;1.60;;
11955;SDS011;6038;52.276;10.530;2023-07-28T12:07:05;1.85;;;1.42;;
11955;SDS011;6038;52.276;10.530;2023-07-28T12:12:26;1.65;;;1.55;;
11955;SDS011;6038;52.276;10.530;2023-07-28T12:14:52;3.53;;;1.55;;
11955;SDS011;6038;52.276;10.530;2023-07-28T12:17:19;1.77;;;1.67;;
11955;SDS011;6038;52.276;10.530;2023-07-28T12:22:41;2.25;;;2.05;;
11955;SDS011;6038;52.276;10.530;2023-07-28T12:25:07;2.30;;;2.10;;
11955;SDS011;6038;52.276;10.530;2023-07-28T12:27:34;2.50;;;2.30;;
11955;SDS011;6038;52.276;10.530;2023-07-28T12:30:00;2.33;;;2.13;;
11955;SDS011;6038;52.276;10.530;2023-07-28T12:32:27;5.15;;;1.88;;
11955;SDS011;6038;52.276;10.530;2023-07-28T12:34:53;2.25;;;2.00;;
11955;SDS011;6038;52.276;10.530;2023-07-28T12:37:19;2.40;;;2.10;;
11955;SDS011;6038;52.276;10.530;2023-07-28T12:39:45;3.47;;;1.88;;
11955;SDS011;6038;52.276;10.530;2023-07-28T12:42:11;2.20;;;2.00;;
11955;SDS011;6038;52.276;10.530;2023-07-28T12:44:38;2.42;;;2.08;;
11955;SDS011;6038;52.276;10.530;2023-07-28T12:47:05;3.13;;;1.90;;
11955;SDS011;6038;52.276;10.530;2023-07-28T12:49:31;2.08;;;1.88;;
11955;SDS011;6038;52.276;10.530;2023-07-28T12:51:59;2.05;;;1.83;;
11955;SDS011;6038;52.276;10.530;2023-07-28T12:54:25;2.08;;;1.98;;
11955;SDS011;6038;52.276;10.530;2023-07-28T12:56:52;1.95;;;1.85;;
11955;SDS011;6038;52.276;10.530;2023-07-28T12:59:19;2.20;;;1.98;;
11955;SDS011;6038;52.276;10.530;2023-07-28T13:01:45;2.78;;;1.88;;
11955;SDS011;6038;52.276;10.530;2023-07-28T13:04:11;2.55;;;2.08;;
11955;SDS011;6038;52.276;10.530;2023-07-28T13:06:37;2.05;;;1.90;;
11955;SDS011;6038;52.276;10.530;2023-07-28T13:09:03;2.42;;;2.22;;
11955;SDS011;6038;52.276;10.530;2023-07-28T13:11:30;3.50;;;2.08;;
11955;SDS011;6038;52.276;10.530;2023-07-28T13:13:56;3.85;;;2.10;;
11955;SDS011;6038;52.276;10.530;2023-07-28T13:16:22;3.55;;;1.80;;
11955;SDS011;6038;52.276;10.530;2023-07-28T13:18:48;2.30;;;1.98;;
11955;SDS011;6038;52.276;10.530;2023-07-28T13:21:14;8.13;;;1.70;;
11955;SDS011;6038;52.276;10.530;2023-07-28T13:23:40;3.88;;;2.40;;
11955;SDS011;6038;52.276;10.530;2023-07-28T13:26:06;2.20;;;2.00;;
11955;SDS011;6038;52.276;10.530;2023-07-28T13:28:32;2.67;;;2.00;;
11955;SDS011;6038;52.276;10.530;2023-07-28T13:31:02;3.70;;;2.03;;
11955;SDS011;6038;52.276;10.530;2023-07-28T13:33:29;2.95;;;2.03;;
11955;SDS011;6038;52.276;10.530;2023-07-28T13:35:55;2.83;;;2.15;;
11955;SDS011;6038;52.276;10.530;2023-07-28T13:38:21;2.75;;;2.10;;
11955;SDS011;6038;52.276;10.530;2023-07-28T13:40:47;3.80;;;2.00;;
11955;SDS011;6038;52.276;10.530;2023-07-28T13:43:13;2.33;;;1.75;;
11955;SDS011;6038;52.276;10.530;2023-07-28T13:45:39;4.65;;;2.00;;
11955;SDS011;6038;52.276;10.530;2023-07-28T13:48:05;2.95;;;1.90;;
11955;SDS011;6038;52.276;10.530;2023-07-28T13:50:31;2.30;;;1.60;;
11955;SDS011;6038;52.276;10.530;2023-07-28T13:52:57;4.18;;;1.83;;
11955;SDS011;6038;52.276;10.530;2023-07-28T13:55:23;2.00;;;1.70;;
11955;SDS011;6038;52.276;10.530;2023-07-28T13:57:49;3.90;;;2.17;;
11955;SDS011;6038;52.276;10.530;2023-07-28T14:00:15;4.55;;;1.95;;
11955;SDS011;6038;52.276;10.530;2023-07-28T14:02:41;1.98;;;1.73;;
11955;SDS011;6038;52.276;10.530;2023-07-28T14:05:07;2.78;;;1.88;;
11955;SDS011;6038;52.276;10.530;2023-07-28T14:07:33;1.80;;;1.58;;
11955;SDS011;6038;52.276;10.530;2023-07-28T14:10:00;1.92;;;1.70;;
11955;SDS011;6038;52.276;10.530;2023-07-28T14:12:26;1.80;;;1.70;;
11955;SDS011;6038;52.276;10.530;2023-07-28T14:14:52;4.93;;;4.50;;
11955;SDS011;6038;52.276;10.530;2023-07-28T14:17:18;54.80;;;51.42;;
11955;SDS011;6038;52.276;10.530;2023-07-28T14:19:44;75.25;;;70.30;;
11955;SDS011;6038;52.276;10.530;2023-07-28T14:22:10;45.20;;;42.45;;
11955;SDS011;6038;52.276;10.530;2023-07-28T14:24:36;37.38;;;35.10;;
11955;SDS011;6038;52.276;10.530;2023-07-28T14:27:02;38.65;;;36.10;;
11955;SDS011;6038;52.276;10.530;2023-07-28T14:29:28;34.65;;;32.40;;
11955;SDS011;6038;52.276;10.530;2023-07-28T14:31:54;29.05;;;27.35;;
11955;SDS011;6038;52.276;10.530;2023-07-28T14:34:20;19.08;;;17.95;;
11955;SDS011;6038;52.276;10.530;2023-07-28T14:36:46;24.00;;;22.60;;
11955;SDS011;6038;52.276;10.530;2023-07-28T14:39:12;29.35;;;27.27;;
11955;SDS011;6038;52.276;10.530;2023-07-28T14:41:38;22.02;;;20.73;;
11955;SDS011;6038;52.276;10.530;2023-07-28T14:44:04;14.32;;;13.43;;
11955;SDS011;6038;52.276;10.530;2023-07-28T14:46:30;17.25;;;15.95;;
11955;SDS011;6038;52.276;10.530;2023-07-28T14:48:56;14.75;;;13.85;;
11955;SDS011;6038;52.276;10.530;2023-07-28T14:51:22;12.45;;;11.52;;
11955;SDS011;6038;52.276;10.530;2023-07-28T14:53:48;10.27;;;9.68;;
11955;SDS011;6038;52.276;10.530;2023-07-28T14:56:15;5.93;;;5.50;;